Time;durP1;ratioP1;P1;durP2;ratioP2;P2;SDS_P1;SDS_P2;PMS_P1;PMS_P2;Temp;Humidity;BMP_temperature;BMP_pressure;BME280_temperature;BME280_humidity;BME280_pressure;Samples;Min_cycle;Max_cycle;Signal;HPM_P1;HPM_P2
2023/03/04 00:02:44;;;;;;;28;16.2;;;;;;;0;85.1;98850;;;;
2023/03/04 00:13:44;;;;;;;28.3;17.7;;;;;;;0;85.1;98840;;;;
2023/03/04 00:24:44;;;;;;;28.3;17.7;;;;;;;0.1;84.9;98830;;;;
2023/03/04 00:35:44;;;;;;;27.4;14.2;;;;;;;0.1;84.8;98810;;;;
2023/03/04 00:45:44;;;;;;;27.4;14.2;;;;;;;0.1;84.6;98790;;;;
2023/03/04 00:55:44;;;;;;;27.4;14.2;;;;;;;0.1;84.5;98780;;;;
2023/03/04 01:06:44;;;;;;;24.3;13.1;;;;;;;0.1;84.5;98760;;;;
2023/03/04 01:17:44;;;;;;;24.3;13.1;;;;;;;0.2;84.5;98720;;;;
2023/03/04 01:28:44;;;;;;;24.3;13.1;;;;;;;0.2;84.4;98710;;;;
2023/03/04 01:39:44;;;;;;;26.1;11.8;;;;;;;0.3;84.2;98690;;;;
2023/03/04 01:49:44;;;;;;;26.1;11.8;;;;;;;0.3;84.1;98680;;;;
2023/03/04 02:00:44;;;;;;;26.1;11.8;;;;;;;0.3;83.9;98680;;;;
2023/03/04 02:11:44;;;;;;;19.7;10.5;;;;;;;0.4;83.7;98660;;;;
2023/03/04 02:22:44;;;;;;;19.7;10.5;;;;;;;0.4;83.1;98660;;;;
2023/03/04 02:32:44;;;;;;;20.4;9.8;;;;;;;0.5;83;98650;;;;
2023/03/04 02:43:44;;;;;;;20.4;9.8;;;;;;;0.4;83;98650;;;;
2023/03/04 02:53:44;;;;;;;20.4;9.8;;;;;;;0.5;82.7;98640;;;;
2023/03/04 03:03:44;;;;;;;22.1;10.4;;;;;;;0.5;82.7;98610;;;;
2023/03/04 03:13:45;;;;;;;22.1;10.4;;;;;;;0.5;82.6;98590;;;;
2023/03/04 03:23:44;;;;;;;22.1;10.4;;;;;;;0.5;82.7;98590;;;;
2023/03/04 03:34:44;;;;;;;21;10.3;;;;;;;0.4;82.7;98570;;;;
2023/03/04 03:45:44;;;;;;;21;10.3;;;;;;;0.2;82.9;98570;;;;
2023/03/04 03:55:44;;;;;;;21;10.3;;;;;;;0;84;98580;;;;
2023/03/04 04:05:44;;;;;;;21.3;11;;;;;;;0;84.4;98590;;;;
2023/03/04 04:15:45;;;;;;;21.3;11;;;;;;;-0.1;84.7;98570;;;;
2023/03/04 04:26:44;;;;;;;21.3;11;;;;;;;-0.3;85.1;98570;;;;
2023/03/04 04:36:44;;;;;;;25.3;12.2;;;;;;;-0.4;85.4;98560;;;;
2023/03/04 04:47:44;;;;;;;25.3;12.2;;;;;;;-0.5;85.7;98560;;;;
2023/03/04 04:58:44;;;;;;;25.3;12.2;;;;;;;-0.5;85.9;98550;;;;
2023/03/04 05:09:44;;;;;;;24.7;12.3;;;;;;;-0.6;86.1;98540;;;;
2023/03/04 05:19:44;;;;;;;24.7;12.3;;;;;;;-0.6;86;98540;;;;
2023/03/04 05:29:45;;;;;;;24.7;12.3;;;;;;;-0.6;86.5;98550;;;;
2023/03/04 05:39:44;;;;;;;21.4;11.2;;;;;;;-0.5;86.7;98550;;;;
2023/03/04 05:50:45;;;;;;;21.4;11.2;;;;;;;-0.4;86.8;98550;;;;
2023/03/04 06:01:44;;;;;;;21.4;11.2;;;;;;;-0.1;86.5;98540;;;;
2023/03/04 06:11:44;;;;;;;30.5;14;;;;;;;0;85.7;98530;;;;
2023/03/04 06:22:44;;;;;;;30.5;14;;;;;;;0;85.2;98530;;;;
2023/03/04 06:33:45;;;;;;;40.5;20.1;;;;;;;0;84.9;98550;;;;
2023/03/04 06:43:44;;;;;;;40.5;20.1;;;;;;;-0.1;84.9;98560;;;;
2023/03/04 06:53:45;;;;;;;40.5;20.1;;;;;;;-0.4;84.7;98560;;;;
2023/03/04 07:04:44;;;;;;;34.2;20;;;;;;;-0.4;85;98550;;;;
2023/03/04 07:14:44;;;;;;;34.2;20;;;;;;;-0.1;84.6;98550;;;;
2023/03/04 07:25:44;;;;;;;34.2;20;;;;;;;0.1;83.4;98550;;;;
2023/03/04 07:35:45;;;;;;;37.6;21;;;;;;;-0.1;83.6;98560;;;;
2023/03/04 07:46:45;;;;;;;37.6;21;;;;;;;-0.1;83.5;98570;;;;
2023/03/04 07:57:45;;;;;;;37.6;21;;;;;;;-0.5;84;98580;;;;
2023/03/04 08:08:44;;;;;;;42.5;22.9;;;;;;;-0.5;84.1;98590;;;;
2023/03/04 08:18:44;;;;;;;42.5;22.9;;;;;;;-0.4;84.1;98590;;;;
2023/03/04 08:28:44;;;;;;;42.5;22.9;;;;;;;-0.3;84;98610;;;;
2023/03/04 08:38:44;;;;;;;41.6;19.2;;;;;;;-0.3;83.8;98610;;;;
2023/03/04 08:48:45;;;;;;;41.6;19.2;;;;;;;-0.1;83.4;98610;;;;
2023/03/04 08:59:45;;;;;;;41.6;19.2;;;;;;;0.2;82;98600;;;;
2023/03/04 09:09:45;;;;;;;34.4;19.5;;;;;;;0.6;80.5;98610;;;;
2023/03/04 09:20:45;;;;;;;34.4;19.5;;;;;;;0.8;78.8;98610;;;;
2023/03/04 09:30:44;;;;;;;34.4;19.5;;;;;;;0.7;78.2;98600;;;;
2023/03/04 09:40:45;;;;;;;31.6;16;;;;;;;0.8;78.6;98610;;;;
2023/03/04 09:51:45;;;;;;;31.6;16;;;;;;;0.8;78.8;98600;;;;
2023/03/04 10:02:45;;;;;;;33;18.1;;;;;;;0.8;79;98590;;;;
2023/03/04 10:12:44;;;;;;;33;18.1;;;;;;;0.9;78.6;98580;;;;
2023/03/04 10:22:44;;;;;;;33;18.1;;;;;;;0.9;78.5;98560;;;;
2023/03/04 10:32:44;;;;;;;41.6;22.7;;;;;;;0.9;78.3;98570;;;;
2023/03/04 10:42:45;;;;;;;41.6;22.7;;;;;;;1;78.4;98570;;;;
2023/03/04 10:53:45;;;;;;;41.6;22.7;;;;;;;1;78.4;98550;;;;
2023/03/04 11:04:45;;;;;;;36.9;20;;;;;;;1.1;78.2;98540;;;;
2023/03/04 11:14:45;;;;;;;36.9;20;;;;;;;1.3;77.7;98530;;;;
2023/03/04 11:24:45;;;;;;;36.9;20;;;;;;;1.4;77.1;98530;;;;
2023/03/04 11:35:45;;;;;;;34.1;18.5;;;;;;;1.5;76.9;98520;;;;
2023/03/04 11:45:45;;;;;;;34.1;18.5;;;;;;;1.6;77.1;98510;;;;
2023/03/04 11:55:45;;;;;;;34.1;18.5;;;;;;;1.7;76.7;98490;;;;
2023/03/04 12:05:45;;;;;;;26.2;17;;;;;;;1.9;76.6;98480;;;;
2023/03/04 12:16:45;;;;;;;26.2;17;;;;;;;2.1;76.4;98470;;;;
2023/03/04 12:27:45;;;;;;;26.2;17;;;;;;;2.2;76.3;98470;;;;
2023/03/04 12:37:45;;;;;;;23.2;14.8;;;;;;;2.2;76.1;98460;;;;
2023/03/04 12:47:45;;;;;;;23.2;14.8;;;;;;;2.1;76.2;98460;;;;
2023/03/04 12:57:45;;;;;;;23.2;14.8;;;;;;;2.2;76.3;98470;;;;
2023/03/04 13:07:45;;;;;;;21.5;13.1;;;;;;;2.2;76.7;98460;;;;
2023/03/04 13:18:45;;;;;;;21.5;13.1;;;;;;;2.4;76.4;98440;;;;
2023/03/04 13:29:45;;;;;;;21.5;13.1;;;;;;;2.5;75.6;98420;;;;
2023/03/04 13:39:45;;;;;;;25.4;13.5;;;;;;;2.7;75.2;98420;;;;
2023/03/04 13:49:45;;;;;;;25.4;13.5;;;;;;;2.9;74.6;98400;;;;
2023/03/04 13:59:45;;;;;;;25.4;13.5;;;;;;;2.9;74.2;98410;;;;
2023/03/04 14:09:45;;;;;;;21.9;12.4;;;;;;;2.9;74.4;98400;;;;
2023/03/04 14:19:45;;;;;;;21.9;12.4;;;;;;;2.9;74.3;98400;;;;
2023/03/04 14:30:45;;;;;;;21.6;11.6;;;;;;;2.9;74.8;98400;;;;
2023/03/04 14:40:45;;;;;;;21.6;11.6;;;;;;;2.8;74.9;98400;;;;
2023/03/04 14:51:45;;;;;;;21.6;11.6;;;;;;;2.8;74.7;98400;;;;
2023/03/04 15:01:45;;;;;;;20.5;12.1;;;;;;;2.8;74.1;98390;;;;
2023/03/04 15:12:46;;;;;;;20.5;12.1;;;;;;;2.9;73.6;98380;;;;
2023/03/04 15:23:45;;;;;;;20.5;12.1;;;;;;;2.9;73.2;98380;;;;
2023/03/04 15:33:45;;;;;;;18.5;12.8;;;;;;;2.9;73;98380;;;;
2023/03/04 15:43:45;;;;;;;18.5;12.8;;;;;;;3;72.5;98370;;;;
2023/03/04 15:54:45;;;;;;;18.5;12.8;;;;;;;3;71.9;98380;;;;
2023/03/04 16:04:45;;;;;;;20.9;11.8;;;;;;;3.1;71.9;98380;;;;
2023/03/04 16:14:45;;;;;;;20.9;11.8;;;;;;;3.1;71.9;98380;;;;
2023/03/04 16:24:45;;;;;;;20.9;11.8;;;;;;;3.1;71.7;98370;;;;
2023/03/04 16:34:45;;;;;;;16.8;9.3;;;;;;;3.1;71.6;98370;;;;
2023/03/04 16:45:45;;;;;;;16.8;9.3;;;;;;;3.1;71.5;98370;;;;
2023/03/04 16:56:45;;;;;;;16.8;9.3;;;;;;;3.1;71.4;98380;;;;
2023/03/04 17:07:45;;;;;;;15.7;9.6;;;;;;;3.1;71.2;98380;;;;
2023/03/04 17:18:45;;;;;;;15.7;9.6;;;;;;;3.1;71.5;98390;;;;
2023/03/04 17:29:46;;;;;;;19.3;10.1;;;;;;;3.2;71.2;98390;;;;
2023/03/04 17:39:45;;;;;;;19.3;10.1;;;;;;;3.1;71.5;98390;;;;
2023/03/04 17:50:45;;;;;;;19.3;10.1;;;;;;;3.1;71.6;98380;;;;
2023/03/04 18:00:45;;;;;;;19;10.4;;;;;;;3.1;71.6;98360;;;;
2023/03/04 18:11:45;;;;;;;19;10.4;;;;;;;3.1;71.8;98360;;;;
2023/03/04 18:21:45;;;;;;;19;10.4;;;;;;;3.2;71.5;98370;;;;
2023/03/04 18:32:45;;;;;;;17.9;10.7;;;;;;;3.1;72.1;98370;;;;
2023/03/04 18:43:45;;;;;;;17.9;10.7;;;;;;;3.1;72.7;98370;;;;
2023/03/04 18:53:45;;;;;;;17.9;10.7;;;;;;;3.2;72.9;98370;;;;
2023/03/04 19:04:45;;;;;;;20.2;11.3;;;;;;;3.2;73.2;98370;;;;
2023/03/04 19:14:45;;;;;;;20.2;11.3;;;;;;;3.2;74;98380;;;;
2023/03/04 19:24:45;;;;;;;20.2;11.3;;;;;;;3.2;74;98370;;;;
2023/03/04 19:35:45;;;;;;;19.4;12;;;;;;;3.2;74.2;98370;;;;
2023/03/04 19:45:45;;;;;;;19.4;12;;;;;;;3.2;73.9;98370;;;;
2023/03/04 19:55:47;;;;;;;19.4;12;;;;;;;3.3;74;98370;;;;
2023/03/04 20:05:45;;;;;;;18.6;12.7;;;;;;;3.3;74.3;98380;;;;
2023/03/04 20:16:45;;;;;;;18.6;12.7;;;;;;;3.3;74.6;98380;;;;
2023/03/04 20:26:45;;;;;;;18.6;12.7;;;;;;;3.3;74.9;98380;;;;
2023/03/04 20:37:45;;;;;;;19.7;12;;;;;;;3.3;75.3;98380;;;;
2023/03/04 20:48:45;;;;;;;19.7;12;;;;;;;3.3;75.8;98380;;;;
2023/03/04 20:58:45;;;;;;;19.7;12;;;;;;;3.3;76.5;98370;;;;
2023/03/04 21:08:45;;;;;;;23.5;12.3;;;;;;;3.3;77;98370;;;;
2023/03/04 21:18:45;;;;;;;23.5;12.3;;;;;;;3.2;77.5;98370;;;;
2023/03/04 21:28:45;;;;;;;23.5;12.3;;;;;;;3.2;77.9;98360;;;;
2023/03/04 21:38:45;;;;;;;27.1;15.6;;;;;;;3.2;78.2;98360;;;;
2023/03/04 21:49:45;;;;;;;27.1;15.6;;;;;;;3.1;78.4;98360;;;;
2023/03/04 22:00:45;;;;;;;24.8;13.4;;;;;;;2.8;78.7;98390;;;;
2023/03/04 22:11:45;;;;;;;24.8;13.4;;;;;;;2.4;77.8;98390;;;;
2023/03/04 22:22:45;;;;;;;24.8;13.4;;;;;;;2.1;77.6;98390;;;;
2023/03/04 22:32:47;;;;;;;10.4;4.9;;;;;;;2.1;77.9;98390;;;;
2023/03/04 22:43:45;;;;;;;10.4;4.9;;;;;;;2;78;98390;;;;
2023/03/04 22:54:45;;;;;;;10.4;4.9;;;;;;;1.9;78.6;98390;;;;
2023/03/04 23:05:45;;;;;;;9;4.8;;;;;;;1.9;79;98390;;;;
2023/03/04 23:15:45;;;;;;;9;4.8;;;;;;;1.9;78.9;98400;;;;
2023/03/04 23:26:46;;;;;;;9;4.8;;;;;;;1.9;78.7;98400;;;;
2023/03/04 23:36:45;;;;;;;10.4;4.6;;;;;;;2;78.6;98400;;;;
2023/03/04 23:47:45;;;;;;;10.4;4.6;;;;;;;2;78.6;98420;;;;
2023/03/04 23:57:45;;;;;;;10.4;4.6;;;;;;;1.9;78.6;98410;;;;
